sensor_id;sensor_type;location;lat;lon;timestamp;P1;durP1;ratioP1;P2;durP2;ratioP2
57667;SDS011;43499;52.366;12.912;2023-03-01T14:58:21;5.18;;;3.08;;
57667;SDS011;43499;52.366;12.912;2023-03-01T14:59:24;7.63;;;3.88;;
57667;SDS011;43499;52.366;12.912;2023-03-01T15:00:27;8.02;;;4.22;;
57667;SDS011;43499;52.366;12.912;2023-03-01T15:01:29;7.43;;;3.80;;
57667;SDS011;43499;52.366;12.912;2023-03-01T15:02:31;8.45;;;4.07;;
57667;SDS011;43499;52.366;12.912;2023-03-01T15:03:35;7.10;;;4.20;;
57667;SDS011;43499;52.366;12.912;2023-03-01T15:04:38;11.57;;;4.28;;
57667;SDS011;43499;52.366;12.912;2023-03-01T15:05:42;8.50;;;4.07;;
57667;SDS011;43499;52.366;12.912;2023-03-01T15:06:44;6.10;;;3.85;;
57667;SDS011;43499;52.366;12.912;2023-03-01T15:07:45;9.07;;;4.43;;
57667;SDS011;43499;52.366;12.912;2023-03-01T15:08:50;7.35;;;4.40;;
57667;SDS011;43499;52.366;12.912;2023-03-01T15:09:54;8.90;;;4.60;;
57667;SDS011;43499;52.366;12.912;2023-03-01T15:10:56;7.00;;;4.38;;
57667;SDS011;43499;52.366;12.912;2023-03-01T15:11:59;8.75;;;4.55;;
57667;SDS011;43499;52.366;12.912;2023-03-01T15:13:13;11.00;;;4.57;;
57667;SDS011;43499;52.366;12.912;2023-03-01T15:14:25;8.23;;;4.15;;
57667;SDS011;43499;52.366;12.912;2023-03-01T15:15:42;6.65;;;4.15;;
57667;SDS011;43499;52.366;12.912;2023-03-01T15:16:47;7.97;;;4.05;;
57667;SDS011;43499;52.366;12.912;2023-03-01T15:17:57;7.63;;;4.32;;
57667;SDS011;43499;52.366;12.912;2023-03-01T15:19:02;11.30;;;4.82;;
57667;SDS011;43499;52.366;12.912;2023-03-01T15:20:17;8.02;;;4.63;;
57667;SDS011;43499;52.366;12.912;2023-03-01T15:21:23;8.80;;;4.60;;
57667;SDS011;43499;52.366;12.912;2023-03-01T15:22:45;8.70;;;4.40;;
57667;SDS011;43499;52.366;12.912;2023-03-01T15:23:50;7.53;;;4.13;;
57667;SDS011;43499;52.366;12.912;2023-03-01T15:24:54;8.90;;;4.88;;
57667;SDS011;43499;52.366;12.912;2023-03-01T15:25:56;7.78;;;4.50;;
57667;SDS011;43499;52.366;12.912;2023-03-01T15:26:58;7.60;;;4.60;;
57667;SDS011;43499;52.366;12.912;2023-03-01T15:28:12;10.88;;;5.47;;
57667;SDS011;43499;52.366;12.912;2023-03-01T15:29:21;7.53;;;4.40;;
57667;SDS011;43499;52.366;12.912;2023-03-01T15:30:33;6.70;;;4.05;;
57667;SDS011;43499;52.366;12.912;2023-03-01T15:31:37;8.48;;;5.18;;
57667;SDS011;43499;52.366;12.912;2023-03-01T15:32:41;7.90;;;3.97;;
57667;SDS011;43499;52.366;12.912;2023-03-01T15:33:43;8.60;;;4.07;;
57667;SDS011;43499;52.366;12.912;2023-03-01T15:34:47;7.22;;;4.47;;
57667;SDS011;43499;52.366;12.912;2023-03-01T15:35:51;9.27;;;4.90;;
57667;SDS011;43499;52.366;12.912;2023-03-01T15:36:54;9.32;;;4.38;;
57667;SDS011;43499;52.366;12.912;2023-03-01T15:37:57;7.35;;;4.35;;
57667;SDS011;43499;52.366;12.912;2023-03-01T15:39:01;8.48;;;4.60;;
57667;SDS011;43499;52.366;12.912;2023-03-01T15:40:02;9.43;;;4.10;;
57667;SDS011;43499;52.366;12.912;2023-03-01T15:41:38;6.32;;;4.00;;
57667;SDS011;43499;52.366;12.912;2023-03-01T15:43:14;9.52;;;4.22;;
57667;SDS011;43499;52.366;12.912;2023-03-01T15:45:19;9.90;;;4.30;;
57667;SDS011;43499;52.366;12.912;2023-03-01T15:46:40;7.80;;;3.92;;
57667;SDS011;43499;52.366;12.912;2023-03-01T15:47:48;7.25;;;4.50;;
57667;SDS011;43499;52.366;12.912;2023-03-01T15:48:52;8.20;;;4.43;;
57667;SDS011;43499;52.366;12.912;2023-03-01T15:49:57;9.88;;;4.75;;
57667;SDS011;43499;52.366;12.912;2023-03-01T15:50:59;7.72;;;4.43;;
57667;SDS011;43499;52.366;12.912;2023-03-01T15:52:02;14.45;;;4.70;;
57667;SDS011;43499;52.366;12.912;2023-03-01T15:53:05;9.38;;;4.70;;
57667;SDS011;43499;52.366;12.912;2023-03-01T15:54:17;10.45;;;4.47;;
57667;SDS011;43499;52.366;12.912;2023-03-01T15:55:27;6.80;;;4.25;;
57667;SDS011;43499;52.366;12.912;2023-03-01T15:56:30;9.70;;;3.95;;
57667;SDS011;43499;52.366;12.912;2023-03-01T15:57:34;7.55;;;4.78;;
57667;SDS011;43499;52.366;12.912;2023-03-01T15:58:35;8.82;;;4.40;;
57667;SDS011;43499;52.366;12.912;2023-03-01T15:59:37;6.32;;;3.88;;
57667;SDS011;43499;52.366;12.912;2023-03-01T16:00:38;8.50;;;4.35;;
57667;SDS011;43499;52.366;12.912;2023-03-01T16:01:42;10.88;;;3.80;;
57667;SDS011;43499;52.366;12.912;2023-03-01T16:02:44;7.75;;;4.22;;
57667;SDS011;43499;52.366;12.912;2023-03-01T16:03:45;8.52;;;4.65;;
57667;SDS011;43499;52.366;12.912;2023-03-01T16:04:46;9.15;;;4.45;;
57667;SDS011;43499;52.366;12.912;2023-03-01T16:05:49;6.28;;;3.83;;
57667;SDS011;43499;52.366;12.912;2023-03-01T16:06:52;6.32;;;3.92;;
57667;SDS011;43499;52.366;12.912;2023-03-01T16:56:53;13.07;;;8.40;;
57667;SDS011;43499;52.366;12.912;2023-03-01T16:57:54;10.82;;;7.20;;
57667;SDS011;43499;52.366;12.912;2023-03-01T16:58:56;11.10;;;6.57;;
57667;SDS011;43499;52.366;12.912;2023-03-01T16:59:57;12.20;;;7.88;;
57667;SDS011;43499;52.366;12.912;2023-03-01T17:01:02;15.80;;;7.90;;
57667;SDS011;43499;52.366;12.912;2023-03-01T17:02:05;9.73;;;6.03;;
57667;SDS011;43499;52.366;12.912;2023-03-01T17:03:11;10.10;;;6.05;;
57667;SDS011;43499;52.366;12.912;2023-03-01T17:04:14;10.07;;;6.00;;
57667;SDS011;43499;52.366;12.912;2023-03-01T17:05:16;9.43;;;5.78;;
57667;SDS011;43499;52.366;12.912;2023-03-01T17:06:19;10.63;;;5.85;;
57667;SDS011;43499;52.366;12.912;2023-03-01T17:07:22;11.45;;;6.43;;
57667;SDS011;43499;52.366;12.912;2023-03-01T17:08:23;9.73;;;6.20;;
57667;SDS011;43499;52.366;12.912;2023-03-01T17:09:24;12.95;;;7.80;;
57667;SDS011;43499;52.366;12.912;2023-03-01T17:10:25;10.00;;;6.10;;
57667;SDS011;43499;52.366;12.912;2023-03-01T17:11:26;11.35;;;6.32;;
57667;SDS011;43499;52.366;12.912;2023-03-01T17:12:27;9.95;;;6.00;;
57667;SDS011;43499;52.366;12.912;2023-03-01T17:13:29;7.70;;;5.18;;
57667;SDS011;43499;52.366;12.912;2023-03-01T17:14:30;7.47;;;5.00;;
57667;SDS011;43499;52.366;12.912;2023-03-01T17:15:31;11.15;;;6.07;;
57667;SDS011;43499;52.366;12.912;2023-03-01T17:16:32;11.43;;;6.32;;
57667;SDS011;43499;52.366;12.912;2023-03-01T17:17:33;10.48;;;5.43;;
57667;SDS011;43499;52.366;12.912;2023-03-01T17:18:35;10.13;;;5.22;;
57667;SDS011;43499;52.366;12.912;2023-03-01T17:19:37;9.25;;;5.30;;
57667;SDS011;43499;52.366;12.912;2023-03-01T17:20:41;8.40;;;4.90;;
57667;SDS011;43499;52.366;12.912;2023-03-01T17:21:42;10.90;;;4.60;;
57667;SDS011;43499;52.366;12.912;2023-03-01T17:22:43;12.95;;;5.10;;
57667;SDS011;43499;52.366;12.912;2023-03-01T17:23:44;10.60;;;6.25;;
57667;SDS011;43499;52.366;12.912;2023-03-01T17:24:46;13.13;;;7.35;;
57667;SDS011;43499;52.366;12.912;2023-03-01T17:25:47;14.18;;;7.32;;
57667;SDS011;43499;52.366;12.912;2023-03-01T17:26:48;19.45;;;8.75;;
57667;SDS011;43499;52.366;12.912;2023-03-01T17:27:49;19.88;;;10.63;;
57667;SDS011;43499;52.366;12.912;2023-03-01T17:28:50;23.55;;;9.88;;
57667;SDS011;43499;52.366;12.912;2023-03-01T17:29:52;22.33;;;11.68;;
57667;SDS011;43499;52.366;12.912;2023-03-01T17:30:53;25.17;;;12.00;;
57667;SDS011;43499;52.366;12.912;2023-03-01T17:31:54;23.30;;;11.88;;
57667;SDS011;43499;52.366;12.912;2023-03-01T18:04:59;31.10;;;18.10;;
57667;SDS011;43499;52.366;12.912;2023-03-01T18:48:58;33.97;;;18.60;;
57667;SDS011;43499;52.366;12.912;2023-03-01T19:00:14;37.67;;;17.73;;
57667;SDS011;43499;52.366;12.912;2023-03-01T19:13:38;26.33;;;15.25;;
57667;SDS011;43499;52.366;12.912;2023-03-01T19:16:25;27.05;;;14.07;;
57667;SDS011;43499;52.366;12.912;2023-03-01T19:21:07;36.10;;;16.20;;
57667;SDS011;43499;52.366;12.912;2023-03-01T19:23:54;30.50;;;15.30;;
57667;SDS011;43499;52.366;12.912;2023-03-01T19:55:35;23.63;;;14.05;;
57667;SDS011;43499;52.366;12.912;2023-03-01T20:01:00;26.42;;;14.15;;
57667;SDS011;43499;52.366;12.912;2023-03-01T20:03:35;29.25;;;13.80;;
57667;SDS011;43499;52.366;12.912;2023-03-01T20:44:25;28.38;;;13.90;;
57667;SDS011;43499;52.366;12.912;2023-03-01T21:28:53;28.73;;;14.38;;
57667;SDS011;43499;52.366;12.912;2023-03-01T21:46:05;20.70;;;12.25;;
57667;SDS011;43499;52.366;12.912;2023-03-01T22:16:04;27.52;;;14.13;;
57667;SDS011;43499;52.366;12.912;2023-03-01T22:19:48;23.98;;;13.07;;
57667;SDS011;43499;52.366;12.912;2023-03-01T22:22:18;26.35;;;13.52;;
57667;SDS011;43499;52.366;12.912;2023-03-01T22:44:02;25.00;;;14.50;;
57667;SDS011;43499;52.366;12.912;2023-03-01T22:46:07;24.63;;;13.20;;
57667;SDS011;43499;52.366;12.912;2023-03-01T22:59:24;34.20;;;17.20;;
57667;SDS011;43499;52.366;12.912;2023-03-01T23:13:47;28.55;;;15.25;;
57667;SDS011;43499;52.366;12.912;2023-03-01T23:30:51;34.25;;;14.95;;
57667;SDS011;43499;52.366;12.912;2023-03-01T23:31:55;25.73;;;15.90;;
57667;SDS011;43499;52.366;12.912;2023-03-01T23:32:57;30.65;;;17.60;;
57667;SDS011;43499;52.366;12.912;2023-03-01T23:37:02;27.73;;;15.88;;
57667;SDS011;43499;52.366;12.912;2023-03-01T23:38:04;33.78;;;17.75;;
57667;SDS011;43499;52.366;12.912;2023-03-01T23:39:05;35.88;;;18.25;;
57667;SDS011;43499;52.366;12.912;2023-03-01T23:40:07;32.53;;;16.38;;
57667;SDS011;43499;52.366;12.912;2023-03-01T23:41:10;43.35;;;17.33;;
57667;SDS011;43499;52.366;12.912;2023-03-01T23:42:12;26.58;;;16.23;;
57667;SDS011;43499;52.366;12.912;2023-03-01T23:43:13;28.17;;;15.80;;
57667;SDS011;43499;52.366;12.912;2023-03-01T23:44:15;34.88;;;17.35;;
57667;SDS011;43499;52.366;12.912;2023-03-01T23:45:18;30.92;;;16.10;;
57667;SDS011;43499;52.366;12.912;2023-03-01T23:46:20;35.42;;;17.83;;
57667;SDS011;43499;52.366;12.912;2023-03-01T23:47:22;31.65;;;16.73;;
57667;SDS011;43499;52.366;12.912;2023-03-01T23:48:23;33.00;;;17.17;;
57667;SDS011;43499;52.366;12.912;2023-03-01T23:49:24;33.28;;;17.08;;
57667;SDS011;43499;52.366;12.912;2023-03-01T23:50:26;36.15;;;16.58;;
57667;SDS011;43499;52.366;12.912;2023-03-01T23:51:27;29.38;;;16.50;;
57667;SDS011;43499;52.366;12.912;2023-03-01T23:52:28;27.98;;;16.95;;
57667;SDS011;43499;52.366;12.912;2023-03-01T23:53:30;35.70;;;15.68;;
57667;SDS011;43499;52.366;12.912;2023-03-01T23:54:31;36.13;;;17.65;;
57667;SDS011;43499;52.366;12.912;2023-03-01T23:55:33;29.42;;;17.08;;
57667;SDS011;43499;52.366;12.912;2023-03-01T23:56:35;32.20;;;17.40;;
57667;SDS011;43499;52.366;12.912;2023-03-01T23:57:37;40.13;;;17.98;;
57667;SDS011;43499;52.366;12.912;2023-03-01T23:58:38;39.08;;;19.75;;
57667;SDS011;43499;52.366;12.912;2023-03-01T23:59:39;31.80;;;18.05;;
